Glidden, Texas
Current Conditions -  °F | °C
As of 7:15 AM on Thursday 27 Nov 2014 (Local Time) from K66R Reporting Station
Clear Clear  
Wind Chill: 44°   Ceiling: Unl
Heat Index: 47°   Visibility: 10mi
Dew Point: 37°   Wind: 6mph
Humidity: 67%   Direction: 30°NNE
Pressure: 30.46"   Gusts: NA
Location:  29.7°N, 96.59°W
Report Text: K66R 271315Z AUTO 03005KT 10SM CLR 08/03 A3046 RMK AO2 T00820025
Loading
Personal Weather Stations






























Interactive Weather Map New forecast layout! Learn more

10-Day Weather Forecast

Advertisements
Track Severe Weather on mobile